Coal Hollow, Illinois
Current Conditions -  °F | °C
As of 2:55 PM on Thursday 23 Oct 2014 (Local Time) from KVYS Reporting Station
Broken Clouds Broken Clouds  
Wind Chill: 57°   Ceiling: 10000
Heat Index: 57°   Visibility: 10mi
Dew Point: 43°   Wind: 9mph
Humidity: 59%   Direction: 190°S
Pressure: 30.1"   Gusts: NA
Location:  41.3609°N, 89.3981°W
Report Text: KVYS 231955Z AUTO 19008KT 10SM BKN100 14/06 A3010 RMK AO2 T01410061
Loading
Personal Weather Stations






























Interactive Weather Map
Tropical Storm Tracking
New forecast layout! Learn more

10-Day Weather Forecast

Advertisements
Track Severe Weather on mobile